Time;durP1;ratioP1;P1;durP2;ratioP2;P2;SDS_P1;SDS_P2;PMS_P1;PMS_P2;Temp;Humidity;BMP_temperature;BMP_pressure;BME280_temperature;BME280_humidity;BME280_pressure;Samples;Min_cycle;Max_cycle;Signal;HPM_P1;HPM_P2
2022/02/25 00:01:00;;;;;;;10.00;3.25;;;4.40;99.90;;;1.95;100.00;100593.97;5035281;28;20048;-82
2022/02/25 00:03:28;;;;;;;7.95;3.45;;;4.40;99.90;;;2.05;100.00;100594.91;5012054;28;20157;-81
2022/02/25 00:05:55;;;;;;;8.18;3.22;;;4.50;99.90;;;2.04;100.00;100592.38;5012122;28;20114;-81
2022/02/25 00:08:22;;;;;;;8.23;3.05;;;4.50;99.90;;;1.97;100.00;100597.38;5027771;28;20132;-81
2022/02/25 00:10:49;;;;;;;8.73;3.20;;;4.40;99.90;;;1.92;100.00;100602.25;5023123;28;20117;-81
2022/02/25 00:13:16;;;;;;;7.38;3.03;;;4.40;99.90;;;1.85;100.00;100604.63;5026023;28;20121;-82
2022/02/25 00:15:45;;;;;;;8.10;3.00;;;4.40;99.90;;;1.85;100.00;100603.78;5025857;28;20088;-81
2022/02/25 00:18:13;;;;;;;8.65;3.40;;;4.40;99.90;;;1.79;100.00;100618.53;5009427;28;20057;-81
2022/02/25 00:20:40;;;;;;;7.60;3.05;;;4.40;99.90;;;1.94;100.00;100609.22;5022186;28;20054;-81
2022/02/25 00:23:08;;;;;;;7.45;3.10;;;4.40;99.90;;;1.96;100.00;100611.75;5008402;28;20033;-81
2022/02/25 00:29:35;;;;;;;7.25;2.40;;;4.40;99.90;;;2.07;100.00;100609.03;5008918;28;20064;-81
2022/02/25 00:32:04;;;;;;;5.15;2.60;;;4.40;99.90;;;2.05;100.00;100615.53;5006660;28;20050;-81
2022/02/25 00:34:32;;;;;;;7.63;2.80;;;4.40;99.90;;;1.93;100.00;100622.78;5006484;28;20492;-81
2022/02/25 00:36:59;;;;;;;7.35;3.13;;;4.40;99.90;;;1.90;100.00;100621.16;5007928;28;20132;-81
2022/02/25 00:39:26;;;;;;;7.10;2.78;;;4.40;99.90;;;1.89;100.00;100629.38;5007981;28;20044;-81
2022/02/25 00:41:54;;;;;;;7.55;2.92;;;4.40;99.90;;;1.78;100.00;100629.38;5007938;28;20057;-81
2022/02/25 00:44:21;;;;;;;8.68;2.90;;;4.40;99.90;;;1.80;100.00;100632.81;5016728;28;20551;-81
2022/02/25 00:46:48;;;;;;;6.53;2.80;;;4.40;99.90;;;1.83;100.00;100630.72;5068377;22;20091;-82
2022/02/25 00:49:17;;;;;;;7.55;3.08;;;4.50;99.90;;;1.91;100.00;100632.78;5069563;28;20489;-82
2022/02/25 00:51:44;;;;;;;10.57;3.25;;;4.40;99.90;;;1.89;100.00;100638.25;5057511;28;20405;-82
2022/02/25 00:54:11;;;;;;;7.18;3.30;;;4.40;99.90;;;1.89;100.00;100637.41;5059954;28;20115;-82
2022/02/25 00:56:38;;;;;;;6.43;3.10;;;4.40;99.90;;;1.91;100.00;100652.41;5057449;28;20148;-82
2022/02/25 00:59:06;;;;;;;11.02;3.33;;;4.40;99.90;;;1.93;100.00;100653.13;5049796;28;20514;-82
2022/02/25 01:01:33;;;;;;;8.02;3.17;;;4.40;99.90;;;2.02;100.00;100653.34;5050072;28;20047;-82
2022/02/25 01:04:00;;;;;;;10.98;3.50;;;4.40;99.90;;;2.02;100.00;100661.41;5049848;28;20044;-82
2022/02/25 01:06:30;;;;;;;7.28;3.28;;;4.40;99.90;;;2.13;100.00;100661.38;5050134;28;20456;-82
2022/02/25 01:08:57;;;;;;;10.27;3.65;;;4.40;99.90;;;2.18;100.00;100664.53;5050109;28;20112;-82
2022/02/25 01:11:25;;;;;;;10.50;3.42;;;4.40;99.90;;;2.23;100.00;100667.72;5049713;28;20490;-82
2022/02/25 01:13:52;;;;;;;10.40;3.35;;;4.40;99.90;;;2.09;100.00;100659.94;5049777;28;20494;-82
2022/02/25 01:16:20;;;;;;;8.25;3.50;;;4.50;99.90;;;2.05;100.00;100666.53;5050199;28;20052;-82
2022/02/25 01:18:47;;;;;;;8.77;3.72;;;4.60;99.90;;;2.04;100.00;100667.53;5049554;28;20490;-82
2022/02/25 01:21:14;;;;;;;12.07;3.65;;;4.50;99.90;;;2.05;100.00;100674.59;5049281;28;20123;-82
2022/02/25 01:23:43;;;;;;;11.55;3.40;;;4.50;99.90;;;2.05;100.00;100674.59;5049880;28;20041;-82
2022/02/25 01:26:10;;;;;;;9.25;3.72;;;4.40;99.90;;;2.03;100.00;100672.00;5050034;28;20045;-82
2022/02/25 01:28:38;;;;;;;11.65;3.70;;;4.40;99.90;;;2.04;100.00;100670.22;5049214;28;20131;-81
2022/02/25 01:31:05;;;;;;;6.53;3.17;;;4.40;99.90;;;2.05;100.00;100671.91;5049204;28;20120;-82
2022/02/25 01:33:32;;;;;;;7.57;3.30;;;4.40;99.90;;;2.00;100.00;100676.78;5049781;28;20094;-82
2022/02/25 01:36:00;;;;;;;10.75;3.63;;;4.40;99.90;;;2.04;100.00;100673.75;5049408;28;20051;-82
2022/02/25 01:38:28;;;;;;;10.57;3.30;;;4.40;99.90;;;2.02;100.00;100680.19;5049697;28;20041;-82
2022/02/25 01:40:58;;;;;;;10.80;3.40;;;4.40;99.90;;;1.92;100.00;100675.59;5049368;28;20045;-82
2022/02/25 01:43:26;;;;;;;12.70;3.60;;;4.40;99.90;;;1.98;100.00;100676.94;5049791;28;20063;-82
2022/02/25 01:45:54;;;;;;;8.32;2.78;;;4.40;99.90;;;1.94;100.00;100694.22;5053279;28;20044;-82
2022/02/25 01:48:21;;;;;;;11.85;3.40;;;4.30;99.90;;;1.94;100.00;100686.19;5069203;28;20452;-82
2022/02/25 01:50:49;;;;;;;7.78;3.40;;;4.30;99.90;;;1.92;100.00;100696.19;5068169;28;20049;-82
2022/02/25 01:53:19;;;;;;;14.68;3.42;;;4.30;99.90;;;1.79;100.00;100698.16;5069517;28;20075;-82
2022/02/25 01:55:47;;;;;;;6.90;3.55;;;4.30;99.90;;;1.86;100.00;100697.53;5069898;28;20116;-81
2022/02/25 01:58:16;;;;;;;9.13;3.40;;;4.30;99.90;;;1.86;100.00;100697.53;5069496;28;20052;-82
2022/02/25 02:00:44;;;;;;;8.52;3.10;;;4.30;99.90;;;1.90;100.00;100690.09;5069361;28;20504;-82
2022/02/25 02:03:11;;;;;;;7.72;3.00;;;4.30;99.90;;;1.90;100.00;100690.94;5069253;28;20040;-82
2022/02/25 02:05:39;;;;;;;12.40;3.42;;;4.30;99.90;;;1.79;100.00;100691.00;5069216;28;20036;-82
2022/02/25 02:08:06;;;;;;;7.55;2.88;;;4.30;99.90;;;1.82;100.00;100682.66;5069446;28;20041;-81
2022/02/25 02:10:34;;;;;;;12.27;3.03;;;4.20;99.90;;;1.82;100.00;100688.03;5071279;28;20037;-82
2022/02/25 02:13:01;;;;;;;12.32;3.22;;;4.20;99.90;;;1.85;100.00;100689.63;5073220;28;20481;-82
2022/02/25 02:15:29;;;;;;;8.75;3.03;;;4.20;99.90;;;1.85;100.00;100689.63;5055516;28;20047;-82
2022/02/25 02:17:57;;;;;;;12.45;3.08;;;4.20;99.90;;;1.85;100.00;100692.31;5073397;28;20048;-82
2022/02/25 02:20:24;;;;;;;8.18;2.83;;;4.20;99.90;;;1.85;100.00;100679.75;5072494;28;20036;-82
2022/02/25 02:22:52;;;;;;;11.50;3.55;;;4.20;99.90;;;1.86;100.00;100686.81;5072877;28;20592;-82
2022/02/25 02:25:20;;;;;;;9.68;2.65;;;4.20;99.90;;;1.81;100.00;100677.41;5072106;28;20127;-82
2022/02/25 02:30:31;;;;;;;12.60;2.90;;;4.20;99.90;;;1.83;100.00;100686.19;5072248;28;20044;-82
2022/02/25 02:32:59;;;;;;;10.77;3.00;;;4.20;99.90;;;1.79;100.00;100687.44;5073038;28;20114;-82
2022/02/25 02:35:26;;;;;;;9.82;2.90;;;4.20;99.90;;;1.78;100.00;100688.41;5072006;28;20479;-82
2022/02/25 02:37:56;;;;;;;9.02;2.90;;;4.20;99.90;;;1.87;100.00;100688.53;5073174;28;20442;-82
2022/02/25 02:40:24;;;;;;;12.85;2.60;;;4.10;99.90;;;1.89;100.00;100677.69;5072279;28;20528;-82
2022/02/25 02:42:51;;;;;;;13.18;2.92;;;4.10;99.90;;;1.88;100.00;100690.22;5073030;28;20040;-82
2022/02/25 02:45:18;;;;;;;9.88;2.95;;;4.20;99.90;;;1.88;100.00;100689.38;5054318;28;20450;-82
2022/02/25 02:47:46;;;;;;;13.00;2.78;;;4.10;99.90;;;1.92;100.00;100690.81;5073009;28;20049;-82
2022/02/25 02:50:16;;;;;;;10.57;2.42;;;4.20;99.90;;;1.83;100.00;100692.44;5053314;28;20040;-82
2022/02/25 02:52:44;;;;;;;9.88;2.50;;;4.20;99.90;;;1.83;100.00;100691.56;5072673;28;20048;-82
2022/02/25 02:55:12;;;;;;;10.68;2.70;;;4.20;99.90;;;1.72;100.00;100695.13;5072089;28;20044;-82
2022/02/25 02:57:40;;;;;;;11.68;2.67;;;4.20;99.90;;;1.81;100.00;100694.41;5072744;28;20151;-82
2022/02/25 03:00:09;;;;;;;13.60;2.83;;;4.40;99.90;;;1.77;100.00;100698.28;5072076;28;20047;-82
2022/02/25 03:02:36;;;;;;;10.32;2.60;;;4.20;99.90;;;1.85;100.00;100701.22;5072452;28;20124;-82
2022/02/25 03:05:04;;;;;;;14.00;2.67;;;4.10;99.90;;;1.82;100.00;100697.94;5071869;28;20052;-82
2022/02/25 03:07:32;;;;;;;8.05;2.30;;;4.20;99.90;;;1.79;100.00;100701.72;5072605;28;20131;-82
2022/02/25 03:09:59;;;;;;;7.78;2.60;;;4.10;99.90;;;1.79;100.00;100707.09;5071854;28;20048;-82
2022/02/25 03:12:29;;;;;;;8.45;2.50;;;4.10;99.90;;;1.77;100.00;100709.00;5072337;28;20055;-82
2022/02/25 03:14:56;;;;;;;11.52;2.60;;;4.10;99.90;;;1.73;100.00;100718.28;5072100;28;20041;-82
2022/02/25 03:17:25;;;;;;;12.98;2.70;;;4.10;99.90;;;1.70;100.00;100707.81;5072405;28;20128;-82
2022/02/25 03:19:52;;;;;;;7.82;2.25;;;4.10;99.90;;;1.70;100.00;100713.19;5070982;28;20048;-82
2022/02/25 03:22:19;;;;;;;12.90;2.53;;;4.10;99.90;;;1.75;100.00;100716.34;5071864;28;20454;-82
2022/02/25 03:24:56;;;;;;;7.88;2.40;;;4.10;99.90;;;1.74;100.00;100709.28;5071907;28;20155;-82
2022/02/25 03:27:24;;;;;;;10.38;2.90;;;4.10;99.90;;;1.74;100.00;100711.97;5072232;28;20040;-82
2022/02/25 03:29:53;;;;;;;12.73;2.50;;;4.10;99.90;;;1.77;100.00;100719.75;5071497;28;20089;-82
2022/02/25 03:32:20;;;;;;;12.40;3.05;;;4.00;99.90;;;1.70;100.00;100718.56;5072193;28;20068;-82
2022/02/25 03:34:48;;;;;;;11.98;2.75;;;4.10;99.90;;;1.70;100.00;100718.56;5071487;28;20040;-82
2022/02/25 03:37:16;;;;;;;12.60;2.50;;;4.10;99.90;;;1.69;100.00;100719.50;5071853;28;20059;-82
2022/02/25 03:39:43;;;;;;;9.38;2.42;;;4.00;99.90;;;1.73;100.00;100723.66;5071194;28;20036;-81
2022/02/25 03:42:11;;;;;;;7.70;2.38;;;4.00;99.90;;;1.76;100.00;100720.72;5071542;28;20079;-82
2022/02/25 03:44:38;;;;;;;11.52;2.22;;;4.00;99.90;;;1.72;100.00;100724.66;5069085;28;20033;-82
2022/02/25 03:47:08;;;;;;;11.20;3.13;;;4.00;99.90;;;1.75;100.00;100725.25;5053331;28;20055;-82
2022/02/25 03:49:35;;;;;;;15.45;2.67;;;4.00;99.90;;;1.80;100.00;100732.94;5070956;28;20048;-82
2022/02/25 03:52:02;;;;;;;8.75;2.33;;;4.00;99.90;;;1.82;100.00;100722.91;5071207;28;20575;-82
2022/02/25 03:54:30;;;;;;;13.63;2.58;;;3.90;99.90;;;1.72;100.00;100724.66;5071719;28;20051;-82
2022/02/25 03:56:57;;;;;;;11.27;2.42;;;3.90;99.90;;;1.72;100.00;100721.97;5071262;28;20452;-81
2022/02/25 03:59:24;;;;;;;13.27;2.63;;;4.00;99.90;;;1.74;100.00;100725.38;5071357;28;20047;-82
2022/02/25 04:01:52;;;;;;;13.38;2.85;;;4.00;99.90;;;1.71;100.00;100728.28;5071334;28;20075;-82
2022/02/25 04:04:22;;;;;;;13.70;2.75;;;4.00;99.90;;;1.76;100.00;100732.31;5049636;28;20110;-82
2022/02/25 04:06:50;;;;;;;10.93;2.25;;;4.00;99.90;;;1.81;100.00;100731.97;5053527;28;20037;-82
2022/02/25 04:09:18;;;;;;;14.10;2.63;;;4.00;99.90;;;1.79;100.00;100736.59;5070755;28;20075;-82
2022/02/25 04:11:46;;;;;;;15.88;2.72;;;4.00;99.90;;;1.80;100.00;100734.75;5070367;28;20052;-82
2022/02/25 04:14:14;;;;;;;8.52;2.55;;;4.00;99.90;;;1.76;100.00;100728.78;5053350;28;20421;-81
2022/02/25 04:16:42;;;;;;;11.60;2.50;;;4.00;99.90;;;1.78;100.00;100739.41;5070965;28;20085;-82
2022/02/25 04:19:09;;;;;;;12.18;2.88;;;4.00;99.90;;;1.70;100.00;100731.97;5033647;28;20053;-82
2022/02/25 04:21:38;;;;;;;16.45;2.92;;;4.00;99.90;;;1.69;100.00;100728.41;5070737;28;20041;-82
2022/02/25 04:24:06;;;;;;;11.02;2.80;;;4.00;99.90;;;1.71;100.00;100728.28;5070654;28;20139;-82
2022/02/25 04:26:33;;;;;;;9.73;2.10;;;4.00;99.90;;;1.64;100.00;100732.44;5070910;28;20047;-82
2022/02/25 04:29:01;;;;;;;12.10;2.78;;;4.00;99.90;;;1.54;100.00;100738.53;5070804;28;20052;-82
2022/02/25 04:31:28;;;;;;;11.48;2.40;;;3.90;99.90;;;1.56;100.00;100730.34;5069982;28;20057;-82
2022/02/25 04:33:55;;;;;;;15.52;2.63;;;3.90;99.90;;;1.57;100.00;100729.41;5069830;28;20762;-82
2022/02/25 04:36:22;;;;;;;20.95;2.95;;;3.90;99.90;;;1.64;100.00;100732.44;5070381;28;20083;-82
2022/02/25 04:38:53;;;;;;;13.85;2.42;;;3.90;99.90;;;1.55;100.00;100734.03;5069946;28;20132;-82
2022/02/25 04:41:21;;;;;;;12.98;2.47;;;3.90;99.90;;;1.59;100.00;100740.00;5070138;28;20045;-82
2022/02/25 04:43:49;;;;;;;9.88;2.60;;;3.90;99.90;;;1.72;100.00;100736.22;5070335;28;20044;-82
2022/02/25 04:46:17;;;;;;;16.50;3.63;;;3.90;99.90;;;1.75;100.00;100736.00;5070428;28;20176;-82
2022/02/25 04:48:45;;;;;;;11.15;2.50;;;3.90;99.90;;;1.77;100.00;100735.84;5069654;28;20055;-82
2022/02/25 04:51:16;;;;;;;18.77;2.60;;;3.90;99.90;;;1.70;100.00;100737.31;5069849;28;20481;-82
2022/02/25 04:53:43;;;;;;;14.23;2.72;;;3.90;99.90;;;1.74;100.00;100736.09;5070070;28;20049;-82
2022/02/25 04:56:13;;;;;;;14.32;2.67;;;3.90;99.90;;;1.72;100.00;100727.31;5070101;28;20135;-82
2022/02/25 04:58:40;;;;;;;15.73;3.38;;;4.00;99.90;;;1.62;100.00;100724.53;5069870;28;20036;-82
2022/02/25 05:01:08;;;;;;;11.38;2.55;;;3.90;99.90;;;1.62;100.00;100721.84;5070147;28;20044;-82
2022/02/25 05:03:37;;;;;;;18.80;3.13;;;3.90;99.90;;;1.65;100.00;100726.09;5069969;28;20044;-82
2022/02/25 05:06:04;;;;;;;14.02;2.47;;;3.90;99.90;;;1.62;100.00;100720.97;5069524;28;20063;-82
2022/02/25 05:08:32;;;;;;;12.75;3.05;;;4.00;99.90;;;1.67;100.00;100708.06;5069470;28;20083;-82
2022/02/25 05:10:59;;;;;;;14.52;2.45;;;3.90;99.90;;;1.68;100.00;100718.66;5069673;28;20516;-82
2022/02/25 05:13:28;;;;;;;19.48;2.65;;;3.90;99.90;;;1.57;100.00;100718.66;5070094;28;20127;-80
2022/02/25 05:21:27;;;;;;;13.70;2.63;;;3.90;99.90;;;1.60;100.00;100736.34;5051225;28;20040;-82
2022/02/25 05:23:54;;;;;;;13.10;2.45;;;3.90;99.90;;;1.65;100.00;100736.84;5051693;28;20612;-82
2022/02/25 05:26:22;;;;;;;15.55;3.00;;;3.90;99.90;;;1.63;100.00;100746.84;5069644;28;20480;-82
2022/02/25 05:28:51;;;;;;;17.90;2.72;;;3.90;99.90;;;1.62;100.00;100746.00;5069400;28;20059;-81
2022/02/25 05:31:18;;;;;;;19.27;3.05;;;3.80;99.90;;;1.53;100.00;100734.13;5069556;28;20071;-81
2022/02/25 05:33:46;;;;;;;20.40;2.90;;;3.80;99.90;;;1.57;100.00;100740.13;5051184;28;20135;-82
2022/02/25 05:36:16;;;;;;;11.93;2.42;;;3.80;99.90;;;1.52;100.00;100732.44;5069321;28;20044;-81
2022/02/25 05:38:48;;;;;;;12.52;2.92;;;3.80;99.90;;;1.58;100.00;100736.47;5069431;28;20122;-82
2022/02/25 05:41:16;;;;;;;14.48;2.70;;;3.80;99.90;;;1.61;100.00;100728.16;5069248;28;20049;-82
2022/02/25 05:43:43;;;;;;;15.48;2.63;;;3.80;99.90;;;1.62;100.00;100731.69;5069042;28;20044;-83
2022/02/25 05:46:12;;;;;;;12.65;2.70;;;3.80;99.90;;;1.58;100.00;100743.66;5069201;28;20136;-81
2022/02/25 05:48:39;;;;;;;13.63;2.95;;;3.80;99.90;;;1.63;100.00;100736.94;5062113;28;20041;-81
2022/02/25 05:51:08;;;;;;;14.80;2.80;;;3.80;99.90;;;1.58;100.00;100738.28;5068105;28;20029;-81
2022/02/25 05:53:37;;;;;;;15.13;2.78;;;3.80;99.90;;;1.63;100.00;100741.47;5069060;28;20072;-81
2022/02/25 05:56:05;;;;;;;16.20;3.00;;;3.90;99.90;;;1.53;100.00;100744.88;5069323;28;20067;-81
2022/02/25 05:58:32;;;;;;;10.68;2.60;;;3.90;99.90;;;1.60;100.00;100742.56;5069193;28;20071;-81
2022/02/25 06:01:00;;;;;;;12.60;2.60;;;3.90;99.90;;;1.64;100.00;100743.16;5069008;28;20050;-81
2022/02/25 06:03:28;;;;;;;15.48;2.33;;;3.80;99.90;;;1.55;100.00;100732.19;5065644;28;20112;-81
2022/02/25 06:05:55;;;;;;;15.80;2.95;;;3.90;99.90;;;1.61;100.00;100749.63;5062135;28;20119;-81
2022/02/25 06:08:23;;;;;;;16.77;3.10;;;3.80;99.90;;;1.59;100.00;100742.69;5069337;28;20041;-81
2022/02/25 06:10:50;;;;;;;14.75;3.42;;;3.90;99.90;;;1.60;100.00;100750.63;5068665;28;20506;-81
2022/02/25 06:13:17;;;;;;;17.38;2.80;;;3.80;99.90;;;1.63;100.00;100757.56;5069039;28;20094;-81
2022/02/25 06:15:45;;;;;;;16.95;2.72;;;3.80;99.90;;;1.64;100.00;100756.56;5069112;28;20072;-81
2022/02/25 06:18:13;;;;;;;19.60;3.05;;;3.80;99.90;;;1.65;100.00;100758.28;5067893;28;20044;-79
2022/02/25 06:20:43;;;;;;;18.92;2.92;;;3.90;99.90;;;1.66;100.00;100765.38;5068324;28;20064;-80
2022/02/25 06:23:10;;;;;;;11.80;2.28;;;3.90;99.90;;;1.71;100.00;100760.47;5068962;28;20033;-80
2022/02/25 06:25:38;;;;;;;14.23;2.55;;;3.90;99.90;;;1.70;100.00;100773.06;5047893;28;20520;-80
2022/02/25 06:28:06;;;;;;;15.05;2.47;;;3.90;99.90;;;1.71;100.00;100771.22;5053963;28;20571;-80
2022/02/25 06:30:33;;;;;;;14.70;2.60;;;3.90;99.90;;;1.60;100.00;100771.19;5068555;28;20041;-80
2022/02/25 06:33:01;;;;;;;14.88;2.72;;;3.90;99.90;;;1.59;100.00;100774.88;5069056;28;20118;-80
2022/02/25 06:35:29;;;;;;;18.23;3.38;;;4.00;99.90;;;1.66;100.00;100773.44;5068241;28;20067;-81
2022/02/25 06:38:07;;;;;;;16.98;3.45;;;3.90;99.90;;;1.65;100.00;100771.69;5069519;28;20057;-80
2022/02/25 06:40:34;;;;;;;13.10;2.63;;;3.90;99.90;;;1.68;100.00;100766.97;5068700;28;20143;-80
2022/02/25 06:43:02;;;;;;;19.77;2.80;;;3.90;99.90;;;1.72;100.00;100776.47;5068883;28;20041;-80
2022/02/25 06:45:29;;;;;;;13.32;3.03;;;3.90;99.90;;;1.68;100.00;100774.16;5068710;28;20059;-81
2022/02/25 06:47:57;;;;;;;13.98;2.45;;;3.90;99.90;;;1.77;100.00;100773.41;5061625;28;20052;-80
2022/02/25 06:50:24;;;;;;;12.02;2.45;;;3.90;99.90;;;1.80;100.00;100767.81;5077576;28;20668;-80
2022/02/25 06:52:51;;;;;;;20.42;2.72;;;3.90;99.90;;;1.84;100.00;100768.41;5068662;28;20040;-80
2022/02/25 06:55:20;;;;;;;15.73;2.95;;;4.00;99.90;;;1.82;100.00;100781.94;5069056;28;20101;-80
2022/02/25 06:57:47;;;;;;;18.40;3.20;;;4.00;99.90;;;1.84;100.00;100774.63;5072338;28;20051;-80
2022/02/25 07:00:21;;;;;;;18.17;2.90;;;4.00;99.90;;;1.85;100.00;100781.72;5072238;28;20115;-81
2022/02/25 07:02:50;;;;;;;17.95;2.83;;;4.00;99.90;;;1.83;100.00;100778.31;5069434;28;20048;-80
2022/02/25 07:05:18;;;;;;;19.42;3.20;;;4.00;99.90;;;1.85;100.00;100776.34;5067134;28;20036;-79
2022/02/25 07:07:45;;;;;;;13.55;2.85;;;4.00;99.90;;;1.94;100.00;100775.63;5072064;28;20041;-80
2022/02/25 07:10:12;;;;;;;12.88;2.78;;;4.00;99.90;;;2.05;100.00;100780.13;5068640;28;20131;-80
2022/02/25 07:12:41;;;;;;;15.85;2.95;;;4.10;99.90;;;2.06;100.00;100781.84;5072160;28;20072;-80
2022/02/25 07:15:10;;;;;;;15.13;2.58;;;4.10;99.90;;;2.08;100.00;100781.72;5071154;28;20760;-80
2022/02/25 07:17:37;;;;;;;18.45;3.42;;;4.10;99.90;;;2.11;100.00;100776.09;5067980;28;20045;-80
2022/02/25 07:20:09;;;;;;;17.23;3.22;;;4.10;99.90;;;2.13;100.00;100779.50;5067513;28;20058;-80
2022/02/25 07:22:37;;;;;;;18.40;4.00;;;4.00;99.90;;;2.20;100.00;100779.88;5073640;28;20063;-80
2022/02/25 07:25:05;;;;;;;13.48;3.03;;;4.20;99.90;;;2.26;100.00;100774.00;5072246;28;20047;-80
2022/02/25 07:27:32;;;;;;;16.30;3.00;;;4.20;99.90;;;2.28;100.00;100785.47;5072132;28;20041;-80
2022/02/25 07:30:01;;;;;;;18.85;3.28;;;4.30;99.90;;;2.43;100.00;100792.28;5071569;28;20045;-80
2022/02/25 07:32:29;;;;;;;22.15;3.22;;;4.40;99.90;;;2.56;100.00;100791.28;5078610;28;20123;-80
2022/02/25 07:34:57;;;;;;;19.15;3.20;;;4.50;99.90;;;2.67;100.00;100778.66;5089417;28;20120;-80
2022/02/25 07:37:24;;;;;;;20.27;3.15;;;4.60;99.90;;;2.86;100.00;100782.53;5072172;28;20051;-81
2022/02/25 07:39:51;;;;;;;17.70;2.95;;;4.70;99.90;;;2.87;100.00;100779.69;5070821;28;20105;-80
2022/02/25 07:42:19;;;;;;;13.85;2.97;;;4.80;99.90;;;2.90;100.00;100778.59;5067160;28;20506;-80
2022/02/25 07:44:46;;;;;;;17.73;2.83;;;4.80;99.90;;;2.88;100.00;100781.41;5065717;28;20139;-79
2022/02/25 07:47:16;;;;;;;13.40;2.63;;;4.90;99.90;;;2.84;100.00;100789.88;5068209;28;20294;-80
2022/02/25 07:49:45;;;;;;;17.35;3.33;;;4.90;99.90;;;2.88;100.00;100792.16;5066651;28;20051;-80
2022/02/25 07:52:12;;;;;;;14.85;3.20;;;4.90;99.90;;;2.87;100.00;100798.50;5076672;28;20036;-80
2022/02/25 07:54:40;;;;;;;12.90;2.72;;;4.90;99.90;;;2.80;100.00;100799.13;5071699;28;20040;-80
2022/02/25 07:57:07;;;;;;;30.67;3.83;;;4.90;99.90;;;2.70;100.00;100809.78;5071957;28;20506;-81
2022/02/25 07:59:34;;;;;;;14.63;3.10;;;4.90;99.90;;;2.57;100.00;100818.03;5070004;28;20072;-80
2022/02/25 08:02:02;;;;;;;18.35;3.38;;;4.80;99.90;;;2.50;100.00;100816.81;5075888;28;20036;-80
2022/02/25 08:04:31;;;;;;;17.88;2.65;;;4.80;99.90;;;2.37;100.00;100832.22;5068745;28;20545;-80
2022/02/25 08:06:59;;;;;;;17.83;2.90;;;4.80;99.90;;;2.44;100.00;100833.44;5070703;28;20040;-80
2022/02/25 08:09:26;;;;;;;18.27;3.25;;;4.70;99.90;;;2.40;100.00;100834.63;5070500;28;20037;-80
2022/02/25 08:11:53;;;;;;;15.52;3.13;;;4.70;99.90;;;2.37;100.00;100829.53;5069367;28;20064;-80
2022/02/25 08:14:21;;;;;;;16.88;2.97;;;4.70;99.90;;;2.45;100.00;100822.53;5070653;28;20044;-80
2022/02/25 08:16:48;;;;;;;13.50;3.22;;;4.70;99.90;;;2.44;100.00;100836.13;5070602;28;20446;-80
2022/02/25 08:19:15;;;;;;;25.33;4.05;;;4.70;99.90;;;2.44;100.00;100836.97;5070650;28;20036;-80
2022/02/25 08:21:44;;;;;;;11.85;3.03;;;4.70;99.90;;;2.49;100.00;100850.03;5069161;28;20048;-80
2022/02/25 08:24:11;;;;;;;19.77;3.10;;;4.80;99.90;;;2.56;100.00;100850.38;5070219;28;20456;-80
2022/02/25 08:26:39;;;;;;;16.25;3.58;;;4.80;99.90;;;2.69;100.00;100851.94;5063734;28;20068;-80
2022/02/25 08:29:06;;;;;;;15.68;3.47;;;4.80;99.90;;;2.70;100.00;100850.97;5070358;28;20040;-82
2022/02/25 08:31:33;;;;;;;17.40;3.30;;;4.90;99.90;;;2.68;100.00;100857.44;5070232;28;20393;-82
2022/02/25 08:34:03;;;;;;;21.40;3.72;;;4.80;99.90;;;2.67;100.00;100858.44;5070661;28;20110;-83
2022/02/25 08:36:31;;;;;;;16.10;2.90;;;4.90;99.90;;;2.70;100.00;100864.41;5069875;28;20036;-83
2022/02/25 08:39:00;;;;;;;17.75;3.13;;;4.80;99.90;;;2.71;100.00;100871.47;5070287;28;20040;-84
2022/02/25 08:41:27;;;;;;;17.77;3.35;;;4.80;99.90;;;2.79;100.00;100862.78;5070022;28;20486;-83
2022/02/25 08:43:54;;;;;;;17.75;3.33;;;4.80;99.90;;;2.74;100.00;100865.00;5051981;28;20038;-85
2022/02/25 08:46:22;;;;;;;21.98;3.72;;;4.80;99.90;;;2.74;100.00;100875.75;5069908;28;20036;-84
2022/02/25 08:48:50;;;;;;;20.38;2.88;;;4.80;99.90;;;2.80;100.00;100879.75;5070230;28;20040;-84
2022/02/25 08:51:17;;;;;;;17.42;3.17;;;4.90;99.90;;;2.78;100.00;100884.41;5070226;28;20529;-83
2022/02/25 08:53:44;;;;;;;17.25;3.13;;;4.90;99.90;;;2.81;100.00;100892.25;5052183;28;20640;-83
2022/02/25 08:56:13;;;;;;;16.75;3.17;;;4.90;99.90;;;2.86;100.00;100893.56;5069923;28;20109;-82
2022/02/25 08:58:40;;;;;;;20.45;3.00;;;4.90;99.90;;;2.82;100.00;100904.69;5069374;28;20105;-81
2022/02/25 09:01:08;;;;;;;15.43;3.20;;;5.00;99.90;;;2.81;100.00;100887.72;5069597;28;20036;-80
2022/02/25 09:03:35;;;;;;;20.83;3.70;;;5.00;99.90;;;2.84;100.00;100892.00;5069698;28;20513;-80
2022/02/25 09:06:02;;;;;;;15.32;3.10;;;5.00;99.90;;;2.93;100.00;100907.34;5068027;28;20044;-80
2022/02/25 09:08:30;;;;;;;16.73;3.60;;;5.00;99.90;;;2.93;100.00;100907.34;5071519;28;20619;-80
2022/02/25 09:10:57;;;;;;;18.30;3.88;;;5.00;99.90;;;3.00;100.00;100903.19;5079472;28;20119;-80
2022/02/25 09:13:26;;;;;;;18.60;3.75;;;5.10;99.90;;;3.15;100.00;100905.59;5069672;28;20037;-80
2022/02/25 09:15:54;;;;;;;22.60;3.88;;;5.10;99.90;;;3.32;100.00;100908.59;5070445;28;20119;-80
2022/02/25 09:18:21;;;;;;;13.48;3.78;;;5.20;99.90;;;3.37;100.00;100908.22;5065747;28;20123;-80
2022/02/25 09:20:49;;;;;;;16.73;3.72;;;5.20;99.90;;;3.42;100.00;100908.66;5079713;28;20123;-80
2022/02/25 09:23:16;;;;;;;22.10;3.90;;;5.30;99.90;;;3.55;100.00;100904.97;5085554;28;20067;-80
2022/02/25 09:25:43;;;;;;;20.25;4.10;;;5.40;99.90;;;3.65;100.00;100908.56;5074373;28;20062;-80
2022/02/25 09:28:12;;;;;;;20.85;3.83;;;5.50;99.90;;;3.79;100.00;100915.47;5074153;28;20086;-80
2022/02/25 09:30:42;;;;;;;16.25;3.83;;;5.60;99.90;;;3.86;100.00;100916.66;5064700;28;20111;-80
2022/02/25 09:33:09;;;;;;;22.38;4.70;;;5.70;99.90;;;3.96;100.00;100905.94;5079478;28;20042;-80
2022/02/25 09:35:37;;;;;;;17.75;4.47;;;5.70;99.90;;;4.02;100.00;100911.66;5069621;28;20072;-80
2022/02/25 09:38:04;;;;;;;25.55;3.88;;;5.80;99.90;;;4.14;100.00;100919.69;5065417;28;20041;-80
2022/02/25 09:40:32;;;;;;;20.40;4.68;;;5.80;99.90;;;4.27;100.00;100921.16;5069318;28;20753;-80
2022/02/25 09:43:00;;;;;;;20.63;4.63;;;5.90;99.90;;;4.28;100.00;100916.63;5069003;28;20115;-80
2022/02/25 09:45:27;;;;;;;21.40;4.20;;;6.00;99.90;;;4.44;100.00;100926.94;5069935;28;20452;-80
2022/02/25 09:47:56;;;;;;;23.90;4.05;;;6.00;99.90;;;4.48;100.00;100933.75;5075494;28;20046;-80
2022/02/25 09:50:26;;;;;;;18.13;4.35;;;6.10;99.90;;;4.57;100.00;100932.94;5069424;28;20047;-80
2022/02/25 09:52:56;;;;;;;17.25;4.45;;;6.20;99.90;;;4.70;100.00;100930.00;5068617;28;20037;-80
2022/02/25 09:55:29;;;;;;;16.35;3.63;;;6.30;99.90;;;4.78;100.00;100935.56;5061216;28;20074;-80
2022/02/25 09:58:00;;;;;;;20.38;4.82;;;6.40;99.90;;;4.77;100.00;100949.19;5065458;28;20063;-80
2022/02/25 10:00:27;;;;;;;18.77;4.43;;;6.40;99.90;;;4.76;100.00;100942.06;5069187;28;20417;-80
2022/02/25 10:03:00;;;;;;;29.40;4.97;;;6.50;99.90;;;4.86;100.00;100948.38;5068491;28;20510;-80
2022/02/25 10:05:30;;;;;;;25.67;4.78;;;6.50;99.90;;;4.90;100.00;100944.41;5068850;28;20119;-80
2022/02/25 10:08:09;;;;;;;23.38;4.60;;;6.60;99.90;;;4.89;100.00;100927.38;5068599;28;20070;-80
2022/02/25 10:10:44;;;;;;;17.73;4.75;;;6.60;99.90;;;4.89;100.00;100938.19;5049481;28;20060;-80
2022/02/25 10:13:14;;;;;;;23.80;4.53;;;6.60;99.90;;;4.90;100.00;100952.50;5065421;28;20040;-80
2022/02/25 10:15:43;;;;;;;26.98;5.07;;;6.60;99.90;;;4.95;100.00;100952.94;5069105;28;20049;-80
2022/02/25 10:18:18;;;;;;;17.92;4.50;;;6.70;99.90;;;4.92;100.00;100961.31;5068944;28;20055;-80
2022/02/25 10:20:47;;;;;;;20.67;5.55;;;6.60;99.90;;;4.97;100.00;100959.06;5069309;28;20120;-80
2022/02/25 10:23:25;;;;;;;23.30;5.18;;;6.60;99.90;;;5.01;100.00;100968.59;5069258;28;20474;-81
2022/02/25 10:25:54;;;;;;;21.83;5.10;;;6.70;99.90;;;5.15;100.00;100961.09;5067674;28;20036;-81
2022/02/25 10:28:30;;;;;;;25.58;5.00;;;6.70;99.90;;;5.08;100.00;100964.34;5069221;28;20509;-80